METAR Data
IDs: Format: Raw Decoded Include TAF

Data at: 1418 UTC 27 Nov 2021

ETHF 271320Z 27008KT 9999 FEW012 SCT017 BKN032 04/01 Q0990 BLU